Terminal Aerodrome Forecast
Issued by NWS

Home | Current Version | Previous Version | Text Only | Print | Product List | Glossary On
Versions: 1 2 3 4 5 6 7 8 9 10 11 12 13 14 15 16 17
000
FTUS43 KEAX 261127
TAFMKC
TAF
KMKC 261127Z 2612/2712 14005KT P6SM BKN150
     FM261500 21006KT P6SM VCTS SCT080CB BKN120
      TEMPO 2618/2621 4SM TSRA OVC040CB
     FM262100 28005KT P6SM BKN080
     FM270100 02004KT P6SM BKN150=

USA.gov is the U.S. government's official web portal to all federal, state and local government web resources and services.